createdAt,value
2018-08-16T00:01:29.568Z,2.45
2018-08-16T00:06:33.242Z,1.62
2018-08-16T00:11:37.581Z,2.02
2018-08-16T00:16:41.133Z,2.72
2018-08-16T00:21:44.677Z,1.82
2018-08-16T00:26:48.491Z,2.77
2018-08-16T00:31:52.173Z,1.75
2018-08-16T00:36:56.113Z,2.80
2018-08-16T00:41:59.944Z,1.87
2018-08-16T00:47:04.022Z,5.97
2018-08-16T00:52:08.353Z,1.92
2018-08-16T00:57:12.214Z,2.00
2018-08-16T01:02:15.828Z,2.08
2018-08-16T01:07:20.111Z,2.20
2018-08-16T01:12:23.793Z,4.08
2018-08-16T01:17:27.256Z,1.90
2018-08-16T01:22:31.021Z,4.50
2018-08-16T01:27:34.695Z,2.10
2018-08-16T01:32:38.213Z,2.37
2018-08-16T01:37:41.773Z,3.50
2018-08-16T01:42:45.376Z,2.98
2018-08-16T01:47:48.885Z,4.53
2018-08-16T01:52:52.636Z,3.02
2018-08-16T01:57:56.157Z,3.00
2018-08-16T02:02:59.662Z,2.83
2018-08-16T02:08:03.264Z,2.65
2018-08-16T02:13:06.907Z,3.90
2018-08-16T02:18:10.472Z,3.12
2018-08-16T02:23:14.117Z,3.98
2018-08-16T02:28:17.576Z,2.22
2018-08-16T02:33:21.111Z,3.22
2018-08-16T02:38:24.618Z,2.77
2018-08-16T02:43:28.080Z,3.52
2018-08-16T02:48:31.923Z,3.92
2018-08-16T02:53:35.380Z,3.15
2018-08-16T02:58:38.818Z,4.08
2018-08-16T03:03:42.338Z,2.50
2018-08-16T03:08:45.850Z,4.40
2018-08-16T03:13:49.649Z,5.72
2018-08-16T03:18:53.296Z,3.05
2018-08-16T03:23:57.205Z,5.33
2018-08-16T03:29:00.629Z,3.02
2018-08-16T03:34:04.251Z,4.55
2018-08-16T03:39:08.942Z,2.58
2018-08-16T03:44:12.506Z,7.20
2018-08-16T03:49:16.033Z,2.33
2018-08-16T03:54:19.472Z,2.70
2018-08-16T03:59:22.970Z,3.95
2018-08-16T04:04:26.471Z,7.25
2018-08-16T04:09:30.137Z,3.25
2018-08-16T04:14:33.704Z,3.53
2018-08-16T04:19:37.630Z,4.60
2018-08-16T04:24:41.085Z,5.08
2018-08-16T04:29:44.609Z,5.37
2018-08-16T04:34:48.100Z,4.17
2018-08-16T04:39:51.661Z,4.45
2018-08-16T04:44:55.169Z,6.42
2018-08-16T04:49:58.714Z,5.43
2018-08-16T04:55:02.215Z,4.53
2018-08-16T05:00:07.669Z,4.03
2018-08-16T05:05:11.148Z,3.62
2018-08-16T05:10:14.708Z,3.83
2018-08-16T05:15:18.129Z,7.37
2018-08-16T05:20:21.829Z,4.60
2018-08-16T05:25:25.909Z,3.80
2018-08-16T05:30:29.368Z,5.25
2018-08-16T05:35:33.088Z,5.78
2018-08-16T05:40:36.832Z,3.90
2018-08-16T05:45:40.273Z,4.72
2018-08-16T05:50:44.127Z,6.80
2018-08-16T05:55:47.574Z,4.80
2018-08-16T06:00:51.042Z,5.37
2018-08-16T06:05:54.571Z,4.60
2018-08-16T06:10:58.117Z,7.23
2018-08-16T06:16:01.946Z,9.55
2018-08-16T06:21:05.593Z,4.22
2018-08-16T06:26:09.141Z,6.97
2018-08-16T06:31:12.869Z,9.88
2018-08-16T06:36:16.925Z,4.78
2018-08-16T06:41:20.453Z,12.20
2018-08-16T06:46:24.198Z,5.97
2018-08-16T06:51:27.688Z,3.23
2018-08-16T06:56:31.202Z,6.20
2018-08-16T07:01:34.826Z,9.13
2018-08-16T07:06:38.544Z,8.58
2018-08-16T07:11:42.381Z,3.95
2018-08-16T07:16:45.859Z,4.35
2018-08-16T07:21:49.393Z,5.42
2018-08-16T07:26:52.949Z,3.87
2018-08-16T07:31:56.419Z,7.10
2018-08-16T07:36:59.972Z,4.43
2018-08-16T07:42:03.537Z,4.00
2018-08-16T07:47:07.115Z,4.12
2018-08-16T07:52:10.766Z,3.90
2018-08-16T07:57:14.121Z,4.17
2018-08-16T08:02:17.909Z,5.62
2018-08-16T08:07:21.437Z,4.10
2018-08-16T08:12:24.960Z,3.30
2018-08-16T08:17:28.648Z,3.87
2018-08-16T08:22:32.164Z,4.72
2018-08-16T08:27:36.034Z,4.63
2018-08-16T08:32:40.057Z,7.12
2018-08-16T08:37:54.658Z,3.08
2018-08-16T08:42:58.328Z,4.90
2018-08-16T08:48:01.797Z,4.28
2018-08-16T08:53:16.641Z,2.20
2018-08-16T08:58:31.399Z,2.20
2018-08-16T09:03:34.893Z,1.95
2018-08-16T09:08:38.365Z,4.37
2018-08-16T09:13:54.445Z,4.85
2018-08-16T09:18:58.431Z,5.33
2018-08-16T09:24:02.138Z,4.45
2018-08-16T09:31:33.563Z,4.83
2018-08-16T09:36:37.044Z,3.52
2018-08-16T09:41:40.544Z,3.62
2018-08-16T09:47:02.748Z,3.87
2018-08-16T09:52:07.377Z,5.40
2018-08-16T09:57:12.055Z,2.98
2018-08-16T10:02:17.127Z,2.25
2018-08-16T10:07:20.709Z,4.58
2018-08-16T10:12:24.224Z,3.40
2018-08-16T10:17:27.712Z,3.05
2018-08-16T10:22:31.277Z,6.50
2018-08-16T10:27:34.786Z,4.60
2018-08-16T10:32:38.996Z,3.00
2018-08-16T10:37:42.480Z,2.17
2018-08-16T10:42:46.112Z,3.50
2018-08-16T10:47:49.715Z,5.25
2018-08-16T10:52:53.333Z,3.45
2018-08-16T10:57:56.893Z,1.82
2018-08-16T11:03:00.409Z,3.15
2018-08-16T11:08:03.905Z,2.50
2018-08-16T11:13:07.481Z,5.10
2018-08-16T11:18:11.458Z,3.12
2018-08-16T11:23:15.267Z,2.62
2018-08-16T11:28:18.984Z,2.37
2018-08-16T11:33:22.604Z,1.87
2018-08-16T11:38:26.127Z,2.65
2018-08-16T11:43:29.625Z,2.75
2018-08-16T11:48:33.040Z,2.02
2018-08-16T11:53:36.502Z,2.22
2018-08-16T11:58:40.249Z,5.75
2018-08-16T12:03:44.641Z,3.10
2018-08-16T12:08:48.433Z,2.40
2018-08-16T12:13:52.037Z,2.33
2018-08-16T12:18:55.680Z,2.40
2018-08-16T12:23:59.357Z,1.82
2018-08-16T12:29:03.022Z,5.90
2018-08-16T12:34:06.946Z,2.40
2018-08-16T12:39:10.559Z,3.02
2018-08-16T12:44:14.178Z,2.35
2018-08-16T12:49:17.741Z,2.00
2018-08-16T12:54:21.578Z,2.10
2018-08-16T12:59:25.225Z,2.20
2018-08-16T13:04:29.181Z,2.05
2018-08-16T13:09:32.797Z,1.37
2018-08-16T13:14:36.305Z,1.32
2018-08-16T13:19:39.836Z,2.33
2018-08-16T13:24:43.425Z,4.22
2018-08-16T13:29:46.877Z,5.50
2018-08-16T13:34:50.659Z,3.22
2018-08-16T13:39:54.092Z,3.80
2018-08-16T13:44:57.638Z,1.98
2018-08-16T13:50:01.304Z,7.43
2018-08-16T13:55:05.099Z,6.70
2018-08-16T14:00:09.153Z,7.80
2018-08-16T14:05:12.685Z,4.32
2018-08-16T14:10:16.285Z,2.93
2018-08-16T14:15:19.766Z,5.27
2018-08-16T14:20:23.249Z,2.45
2018-08-16T14:25:26.703Z,3.73
2018-08-16T14:30:30.540Z,3.08
2018-08-16T14:35:34.680Z,2.67
2018-08-16T14:40:38.192Z,2.70
2018-08-16T14:45:41.693Z,4.80
2018-08-16T14:50:45.237Z,2.50
2018-08-16T14:55:48.720Z,5.47
2018-08-16T15:00:52.396Z,1.37
2018-08-16T15:05:56.072Z,3.05
2018-08-16T15:10:59.619Z,3.80
2018-08-16T15:16:03.089Z,6.45
2018-08-16T15:21:06.833Z,6.30
2018-08-16T15:26:10.394Z,4.95
2018-08-16T15:31:13.849Z,3.92
2018-08-16T15:36:17.397Z,3.25
2018-08-16T15:41:21.160Z,3.27
2018-08-16T15:46:24.892Z,3.05
2018-08-16T15:51:28.397Z,6.00
2018-08-16T15:56:31.864Z,1.50
2018-08-16T16:01:35.345Z,5.33
2018-08-16T16:06:38.862Z,5.55
2018-08-16T16:11:42.434Z,11.55
2018-08-16T16:16:46.037Z,13.53
2018-08-16T16:21:49.669Z,12.25
2018-08-16T16:26:53.242Z,10.63
2018-08-16T16:31:56.828Z,12.10
2018-08-16T16:37:00.405Z,8.25
2018-08-16T16:42:03.991Z,13.45
2018-08-16T16:47:08.257Z,9.90
2018-08-16T16:52:11.858Z,8.23
2018-08-16T16:57:15.553Z,6.33
2018-08-16T17:02:19.387Z,8.55
2018-08-16T17:07:23.338Z,7.60
2018-08-16T17:12:26.897Z,6.97
2018-08-16T17:17:30.530Z,11.55
2018-08-16T17:22:34.813Z,8.58
2018-08-16T17:27:38.251Z,13.30
2018-08-16T17:32:41.941Z,8.35
2018-08-16T17:37:45.480Z,8.25
2018-08-16T17:42:49.005Z,8.13
2018-08-16T17:47:52.505Z,7.33
2018-08-16T17:52:55.968Z,6.37
2018-08-16T17:57:59.477Z,6.75
2018-08-16T18:03:03.103Z,5.72
2018-08-16T18:08:06.616Z,4.42
2018-08-16T18:13:10.137Z,10.98
2018-08-16T18:18:13.662Z,12.58
2018-08-16T18:23:17.201Z,6.12
2018-08-16T18:28:20.733Z,6.78
2018-08-16T18:38:42.518Z,8.88
2018-08-16T18:43:46.316Z,6.65
2018-08-16T18:48:49.865Z,7.10
2018-08-16T18:53:53.400Z,6.42
2018-08-16T18:58:56.989Z,7.42
2018-08-16T19:04:00.440Z,5.53
2018-08-16T19:09:04.766Z,6.67
2018-08-16T19:14:08.317Z,5.45
2018-08-16T19:19:11.806Z,5.60
2018-08-16T19:24:16.694Z,4.55
2018-08-16T19:29:20.312Z,7.87
2018-08-16T19:34:23.825Z,3.33
2018-08-16T19:39:27.601Z,2.77
2018-08-16T19:44:31.319Z,4.37
2018-08-16T19:49:34.784Z,8.30
2018-08-16T19:54:38.276Z,7.90
2018-08-16T19:59:42.137Z,5.90
2018-08-16T20:04:46.214Z,4.83
2018-08-16T20:09:51.023Z,7.83
2018-08-16T20:14:54.521Z,4.58
2018-08-16T20:19:58.048Z,4.55
2018-08-16T20:25:01.712Z,3.95
2018-08-16T20:30:06.091Z,4.47
2018-08-16T20:35:10.066Z,4.65
2018-08-16T20:40:13.585Z,6.27
2018-08-16T20:45:17.124Z,4.60
2018-08-16T20:50:20.999Z,3.30
2018-08-16T20:55:24.643Z,2.70
2018-08-16T21:00:28.343Z,3.10
2018-08-16T21:05:31.774Z,3.45
2018-08-16T21:10:35.865Z,4.17
2018-08-16T21:15:39.629Z,3.33
2018-08-16T21:20:44.108Z,3.27
2018-08-16T21:25:47.783Z,2.58
2018-08-16T21:30:51.454Z,3.98
2018-08-16T21:35:55.001Z,1.62
2018-08-16T21:40:59.243Z,3.55
2018-08-16T21:46:02.805Z,3.17
2018-08-16T21:51:06.430Z,2.55
2018-08-16T21:56:10.133Z,1.42
2018-08-16T22:01:14.267Z,2.77
2018-08-16T22:06:29.073Z,1.70
2018-08-16T22:11:32.673Z,2.37
2018-08-16T22:16:36.468Z,4.92
2018-08-16T22:21:40.247Z,2.30
2018-08-16T22:26:43.809Z,1.62
2018-08-16T22:31:47.842Z,3.45
2018-08-16T22:36:52.061Z,2.45
2018-08-16T22:41:55.874Z,1.42
2018-08-16T22:47:00.004Z,1.65
2018-08-16T22:52:03.745Z,1.20
2018-08-16T22:57:07.747Z,2.90
2018-08-16T23:02:11.230Z,4.67
2018-08-16T23:07:14.730Z,2.33
2018-08-16T23:12:18.377Z,2.77
2018-08-16T23:17:21.915Z,2.25
2018-08-16T23:22:25.552Z,3.45
2018-08-16T23:27:29.140Z,1.30
2018-08-16T23:32:32.613Z,2.12
2018-08-16T23:37:36.379Z,1.27
2018-08-16T23:42:40.321Z,1.82
2018-08-16T23:47:53.684Z,1.27
2018-08-16T23:52:57.249Z,1.72
2018-08-16T23:58:00.890Z,1.90
